Chunky, Mississippi
Current Conditions -  °F | °C
As of 12:05 AM on Wednesday 22 Oct 2014 (Local Time) from KMEI Reporting Station
Scattered Clouds Scattered Clouds  
Wind Chill: 53°   Ceiling: Unl
Heat Index: 53°   Visibility: 7mi
Dew Point: 51°   Wind: 0mph
Humidity: 93%   Direction: NA
Pressure: 30.06"   Gusts: NA
Location:  32.33°N, 88.93°W
Report Text: KMEI 220505Z AUTO 00000KT 7SM R01/2600VP6000FT SCT003 12/11 A3006 RMK AO2 T01170106
Loading
Personal Weather Stations






























Interactive Weather Map
Tropical Storm Tracking
New forecast layout! Learn more

10-Day Weather Forecast

Advertisements
Track Severe Weather on mobile